Time;durP1;ratioP1;P1;durP2;ratioP2;P2;SDS_P1;SDS_P2;PMS_P1;PMS_P2;Temp;Humidity;BMP_temperature;BMP_pressure;BME280_temperature;BME280_humidity;BME280_pressure;Samples;Min_cycle;Max_cycle;Signal;HPM_P1;HPM_P2
2024/01/13 00:01:01;;;;;;;69.63;66.00;;;;;;;;;;5032502;28;20037;-65
2024/01/13 00:03:27;;;;;;;65.32;61.78;;;;;;;;;;5032354;28;20123;-65
2024/01/13 00:05:52;;;;;;;68.40;64.57;;;;;;;;;;5033113;28;20133;-65
2024/01/13 00:08:18;;;;;;;68.43;64.80;;;;;;;;;;5032910;28;20068;-65
2024/01/13 00:10:43;;;;;;;70.55;66.95;;;;;;;;;;5031260;28;20025;-65
2024/01/13 00:13:08;;;;;;;75.00;70.72;;;;;;;;;;5031629;28;20056;-65
2024/01/13 00:15:35;;;;;;;71.00;67.32;;;;;;;;;;5029596;28;20041;-66
2024/01/13 00:18:00;;;;;;;70.40;66.63;;;;;;;;;;5035280;28;20279;-65
2024/01/13 00:20:26;;;;;;;72.10;68.20;;;;;;;;;;5033374;28;20120;-65
2024/01/13 00:22:51;;;;;;;70.93;66.70;;;;;;;;;;5032143;28;20083;-65
2024/01/13 00:25:16;;;;;;;70.10;65.75;;;;;;;;;;5033132;28;20037;-65
2024/01/13 00:27:42;;;;;;;67.70;63.85;;;;;;;;;;5029867;28;20037;-65
2024/01/13 00:30:08;;;;;;;60.85;57.53;;;;;;;;;;5034632;28;20349;-65
2024/01/13 00:32:33;;;;;;;65.38;61.88;;;;;;;;;;5028136;28;20131;-65
2024/01/13 00:34:58;;;;;;;62.33;59.05;;;;;;;;;;5033829;28;20104;-66
2024/01/13 00:37:24;;;;;;;64.82;61.25;;;;;;;;;;5031637;28;20356;-65
2024/01/13 00:39:49;;;;;;;61.83;58.28;;;;;;;;;;5034676;28;20676;-65
2024/01/13 00:42:14;;;;;;;63.38;59.97;;;;;;;;;;5032854;28;20035;-65
2024/01/13 00:44:40;;;;;;;66.47;62.85;;;;;;;;;;5029502;28;20157;-65
2024/01/13 00:47:05;;;;;;;66.53;63.03;;;;;;;;;;5031780;28;20075;-65
2024/01/13 00:49:30;;;;;;;64.80;61.22;;;;;;;;;;5027729;28;20044;-65
2024/01/13 00:51:56;;;;;;;64.65;60.88;;;;;;;;;;5033012;28;20040;-65
2024/01/13 00:54:21;;;;;;;60.45;57.35;;;;;;;;;;5030467;28;20418;-65
2024/01/13 00:56:46;;;;;;;62.05;58.28;;;;;;;;;;5029691;28;20098;-65
2024/01/13 00:59:12;;;;;;;63.75;60.13;;;;;;;;;;5030169;28;20045;-65
2024/01/13 01:01:37;;;;;;;63.70;60.17;;;;;;;;;;5029244;28;20048;-65
2024/01/13 01:04:03;;;;;;;59.08;55.67;;;;;;;;;;5029039;28;20435;-66
2024/01/13 01:06:28;;;;;;;63.40;60.00;;;;;;;;;;5030190;28;20041;-65
2024/01/13 01:08:53;;;;;;;59.88;56.67;;;;;;;;;;5031798;28;21170;-65
2024/01/13 01:11:19;;;;;;;63.33;59.92;;;;;;;;;;5014428;28;20040;-65
2024/01/13 01:13:44;;;;;;;61.33;57.72;;;;;;;;;;5031219;28;20029;-65
2024/01/13 01:16:10;;;;;;;65.82;62.30;;;;;;;;;;5030791;28;20136;-65
2024/01/13 01:18:35;;;;;;;64.45;60.95;;;;;;;;;;5032895;28;20040;-65
2024/01/13 01:21:01;;;;;;;65.60;61.90;;;;;;;;;;5034478;28;20071;-64
2024/01/13 01:23:26;;;;;;;59.42;56.10;;;;;;;;;;5028750;28;20049;-65
2024/01/13 01:25:51;;;;;;;62.72;58.95;;;;;;;;;;5031716;28;20116;-65
2024/01/13 01:28:16;;;;;;;63.45;60.10;;;;;;;;;;5031856;28;20074;-65
2024/01/13 01:30:42;;;;;;;65.80;61.85;;;;;;;;;;5030144;28;20036;-65
2024/01/13 01:33:07;;;;;;;65.13;61.30;;;;;;;;;;5030045;28;20033;-65
2024/01/13 01:35:33;;;;;;;61.70;58.35;;;;;;;;;;5028347;28;20037;-65
2024/01/13 01:37:58;;;;;;;60.05;56.85;;;;;;;;;;5028395;28;20049;-65
2024/01/13 01:40:26;;;;;;;61.42;57.97;;;;;;;;;;5031782;28;20124;-65
2024/01/13 01:42:52;;;;;;;60.10;56.75;;;;;;;;;;5029864;28;20040;-65
2024/01/13 01:45:17;;;;;;;61.67;58.30;;;;;;;;;;5031793;28;20550;-65
2024/01/13 01:47:44;;;;;;;59.97;56.72;;;;;;;;;;5028554;28;20044;-65
2024/01/13 01:50:10;;;;;;;59.33;56.25;;;;;;;;;;5035923;28;20041;-64
2024/01/13 01:52:36;;;;;;;61.50;58.08;;;;;;;;;;5027096;28;20029;-65
2024/01/13 01:55:03;;;;;;;60.13;57.00;;;;;;;;;;5028057;28;20221;-65
2024/01/13 01:57:30;;;;;;;61.17;57.78;;;;;;;;;;5030579;28;20032;-65
2024/01/13 01:59:55;;;;;;;62.22;58.53;;;;;;;;;;5030548;28;20573;-65
2024/01/13 02:02:21;;;;;;;62.65;59.03;;;;;;;;;;5029821;28;20061;-65
2024/01/13 02:04:47;;;;;;;64.32;60.88;;;;;;;;;;5029253;28;20041;-64
2024/01/13 02:07:13;;;;;;;59.22;55.97;;;;;;;;;;5029631;28;20355;-65
2024/01/13 02:09:39;;;;;;;58.22;54.90;;;;;;;;;;5026905;28;20057;-65
2024/01/13 02:12:05;;;;;;;60.35;57.05;;;;;;;;;;5032383;28;20048;-65
2024/01/13 02:14:30;;;;;;;53.80;50.70;;;;;;;;;;5033400;28;20338;-65
2024/01/13 02:16:57;;;;;;;54.75;51.65;;;;;;;;;;5035534;28;20034;-65
2024/01/13 02:19:22;;;;;;;53.63;50.72;;;;;;;;;;5039041;28;20063;-65
2024/01/13 02:21:48;;;;;;;58.80;55.50;;;;;;;;;;5032726;28;20033;-65
2024/01/13 02:24:13;;;;;;;55.78;52.67;;;;;;;;;;5034270;28;20044;-67
2024/01/13 02:26:38;;;;;;;52.75;49.90;;;;;;;;;;5029598;28;20037;-68
2024/01/13 02:29:05;;;;;;;54.85;51.70;;;;;;;;;;5033531;28;20037;-64
2024/01/13 02:31:30;;;;;;;55.50;52.58;;;;;;;;;;5035240;28;20071;-68
2024/01/13 02:33:55;;;;;;;54.33;51.22;;;;;;;;;;5033136;28;20152;-67
2024/01/13 02:36:21;;;;;;;53.53;50.53;;;;;;;;;;5035163;28;20049;-68
2024/01/13 02:38:46;;;;;;;55.58;52.08;;;;;;;;;;5034179;28;20026;-68
2024/01/13 02:41:11;;;;;;;51.22;48.42;;;;;;;;;;5034826;28;20067;-68
2024/01/13 02:43:38;;;;;;;52.53;49.33;;;;;;;;;;5033251;28;20083;-68
2024/01/13 02:46:04;;;;;;;51.85;48.95;;;;;;;;;;5036204;28;20037;-67
2024/01/13 02:48:33;;;;;;;51.08;48.13;;;;;;;;;;5032426;28;20047;-67
2024/01/13 02:51:01;;;;;;;52.33;49.33;;;;;;;;;;5031840;28;20033;-65
2024/01/13 02:53:27;;;;;;;51.55;48.70;;;;;;;;;;5032838;28;20038;-64
2024/01/13 02:55:52;;;;;;;50.60;47.78;;;;;;;;;;5034372;28;20352;-64
2024/01/13 02:58:17;;;;;;;51.85;48.47;;;;;;;;;;5034974;28;20044;-65
2024/01/13 03:00:43;;;;;;;49.92;47.25;;;;;;;;;;5031979;28;20084;-65
2024/01/13 03:03:08;;;;;;;50.35;47.55;;;;;;;;;;5033419;28;20212;-64
2024/01/13 03:05:33;;;;;;;51.33;48.47;;;;;;;;;;5033563;28;20429;-64
2024/01/13 03:07:59;;;;;;;52.13;49.05;;;;;;;;;;5031397;28;20534;-64
2024/01/13 03:10:25;;;;;;;52.40;49.40;;;;;;;;;;5035464;28;20037;-64
2024/01/13 03:12:50;;;;;;;51.58;48.08;;;;;;;;;;5034365;28;20037;-64
2024/01/13 03:15:16;;;;;;;50.20;47.30;;;;;;;;;;5035045;28;20045;-64
2024/01/13 03:17:41;;;;;;;48.60;45.90;;;;;;;;;;5026794;28;20048;-64
2024/01/13 03:20:07;;;;;;;48.65;46.05;;;;;;;;;;5034600;28;20170;-64
2024/01/13 03:22:32;;;;;;;50.42;47.53;;;;;;;;;;5032720;28;20040;-64
2024/01/13 03:24:58;;;;;;;50.63;47.75;;;;;;;;;;5032163;28;20460;-64
2024/01/13 03:27:23;;;;;;;50.67;47.88;;;;;;;;;;5035039;28;20033;-67
2024/01/13 03:29:48;;;;;;;52.42;49.15;;;;;;;;;;5029668;28;20108;-67
2024/01/13 03:32:14;;;;;;;50.63;47.78;;;;;;;;;;5034661;28;20048;-67
2024/01/13 03:34:39;;;;;;;50.80;47.80;;;;;;;;;;5031195;28;20149;-68
2024/01/13 03:37:06;;;;;;;50.28;47.47;;;;;;;;;;5031062;28;20063;-67
2024/01/13 03:39:31;;;;;;;51.58;48.35;;;;;;;;;;5035095;28;20370;-67
2024/01/13 03:41:57;;;;;;;52.83;49.58;;;;;;;;;;5028535;28;20037;-67
2024/01/13 03:44:22;;;;;;;53.28;50.22;;;;;;;;;;5032741;28;20033;-68
2024/01/13 03:46:47;;;;;;;49.75;46.92;;;;;;;;;;5030958;28;20458;-68
2024/01/13 03:49:13;;;;;;;48.47;45.53;;;;;;;;;;5035012;28;20045;-67
2024/01/13 03:51:38;;;;;;;53.08;49.63;;;;;;;;;;5032000;28;20383;-67
2024/01/13 03:54:04;;;;;;;49.28;46.58;;;;;;;;;;5032450;28;20425;-68
2024/01/13 03:56:30;;;;;;;51.70;48.65;;;;;;;;;;5034864;28;20398;-67
2024/01/13 03:58:55;;;;;;;48.33;45.53;;;;;;;;;;5032918;28;20034;-67
2024/01/13 04:01:21;;;;;;;49.95;47.05;;;;;;;;;;5031139;28;20367;-67
2024/01/13 04:03:46;;;;;;;49.40;46.53;;;;;;;;;;5031507;28;20037;-67
2024/01/13 04:06:12;;;;;;;48.92;46.13;;;;;;;;;;5032535;28;20029;-67
2024/01/13 04:08:37;;;;;;;49.80;47.00;;;;;;;;;;5003800;28;20021;-67
2024/01/13 04:11:08;;;;;;;47.28;44.42;;;;;;;;;;5030310;28;20594;-67
2024/01/13 04:13:33;;;;;;;51.38;48.42;;;;;;;;;;5032006;28;20030;-67
2024/01/13 04:15:59;;;;;;;49.15;46.00;;;;;;;;;;5032819;28;20428;-67
2024/01/13 04:18:24;;;;;;;47.30;44.30;;;;;;;;;;5031771;28;20033;-67
2024/01/13 04:20:49;;;;;;;47.50;44.60;;;;;;;;;;5028453;28;20041;-68
2024/01/13 04:23:15;;;;;;;50.22;46.80;;;;;;;;;;5027892;28;20045;-67
2024/01/13 04:25:40;;;;;;;51.53;48.22;;;;;;;;;;5029841;28;20091;-67
2024/01/13 04:28:06;;;;;;;52.55;49.15;;;;;;;;;;5030628;28;20037;-67
2024/01/13 04:30:31;;;;;;;47.05;44.22;;;;;;;;;;5029577;28;20375;-67
2024/01/13 04:32:57;;;;;;;48.17;45.50;;;;;;;;;;5029932;28;20033;-67
2024/01/13 04:35:22;;;;;;;49.17;46.40;;;;;;;;;;5029621;28;20044;-68
2024/01/13 04:37:48;;;;;;;49.10;46.20;;;;;;;;;;5027898;28;20067;-67
2024/01/13 04:40:13;;;;;;;49.35;46.45;;;;;;;;;;5030787;28;20529;-67
2024/01/13 04:42:38;;;;;;;50.00;46.97;;;;;;;;;;5029213;28;20084;-67
2024/01/13 04:45:04;;;;;;;47.75;45.00;;;;;;;;;;5032223;28;20036;-67
2024/01/13 04:47:30;;;;;;;48.90;45.70;;;;;;;;;;5028736;28;20022;-67
2024/01/13 04:49:55;;;;;;;44.70;42.22;;;;;;;;;;5033685;28;20469;-67
2024/01/13 04:52:21;;;;;;;45.85;43.28;;;;;;;;;;5027534;28;20491;-67
2024/01/13 04:54:46;;;;;;;47.05;44.38;;;;;;;;;;5030015;28;20037;-67
2024/01/13 04:57:11;;;;;;;48.28;45.40;;;;;;;;;;5030462;28;20486;-67
2024/01/13 04:59:37;;;;;;;48.13;45.33;;;;;;;;;;5033539;28;20044;-67
2024/01/13 05:02:03;;;;;;;49.85;46.95;;;;;;;;;;5028134;28;20050;-67
2024/01/13 05:04:28;;;;;;;51.83;48.00;;;;;;;;;;5029369;28;20106;-67
2024/01/13 05:06:54;;;;;;;53.15;49.15;;;;;;;;;;5027976;28;20058;-67
2024/01/13 05:09:20;;;;;;;52.13;49.10;;;;;;;;;;5031910;28;20051;-69
2024/01/13 05:11:45;;;;;;;50.33;47.17;;;;;;;;;;5029812;28;20037;-67
2024/01/13 05:14:11;;;;;;;52.05;49.13;;;;;;;;;;5029919;28;20177;-67
2024/01/13 05:16:36;;;;;;;50.83;47.90;;;;;;;;;;5026930;28;20037;-67
2024/01/13 05:19:02;;;;;;;50.90;47.95;;;;;;;;;;5032126;28;20082;-67
2024/01/13 05:21:27;;;;;;;48.03;45.20;;;;;;;;;;5032946;28;20060;-68
2024/01/13 05:23:53;;;;;;;48.03;45.38;;;;;;;;;;5033903;28;20485;-67
2024/01/13 05:26:19;;;;;;;49.92;46.13;;;;;;;;;;5030727;28;20037;-67
2024/01/13 05:28:44;;;;;;;51.25;48.40;;;;;;;;;;5031470;28;20048;-67
2024/01/13 05:31:09;;;;;;;46.10;43.50;;;;;;;;;;5029598;28;20107;-67
2024/01/13 05:33:35;;;;;;;51.25;47.75;;;;;;;;;;5034990;28;20133;-67
2024/01/13 05:36:00;;;;;;;49.75;46.88;;;;;;;;;;5029805;28;20030;-67
2024/01/13 05:38:26;;;;;;;47.65;45.05;;;;;;;;;;5030266;28;20037;-67
2024/01/13 05:40:51;;;;;;;47.17;44.40;;;;;;;;;;5030705;28;20037;-68
2024/01/13 05:43:18;;;;;;;48.10;45.40;;;;;;;;;;5029520;28;20055;-67
2024/01/13 05:45:43;;;;;;;46.97;44.28;;;;;;;;;;5030223;28;20025;-67
2024/01/13 05:48:09;;;;;;;49.83;46.83;;;;;;;;;;5035755;28;20355;-67
2024/01/13 05:50:34;;;;;;;48.50;45.80;;;;;;;;;;5033353;28;20617;-67
2024/01/13 05:53:00;;;;;;;50.85;47.90;;;;;;;;;;5027138;28;20716;-67
2024/01/13 05:55:25;;;;;;;51.30;48.40;;;;;;;;;;5031168;28;20052;-67
2024/01/13 05:57:50;;;;;;;51.97;48.75;;;;;;;;;;5032138;28;20108;-67
2024/01/13 06:00:16;;;;;;;48.50;45.70;;;;;;;;;;5029180;28;20033;-68
2024/01/13 06:02:43;;;;;;;49.92;46.92;;;;;;;;;;5028889;28;20091;-67
2024/01/13 06:05:09;;;;;;;47.47;44.50;;;;;;;;;;5032583;28;20414;-68
2024/01/13 06:07:34;;;;;;;48.20;45.15;;;;;;;;;;5033540;28;20043;-68
2024/01/13 06:09:59;;;;;;;47.22;44.55;;;;;;;;;;5028951;28;20039;-67
2024/01/13 06:12:27;;;;;;;47.67;45.10;;;;;;;;;;5029625;28;20067;-67
2024/01/13 06:14:52;;;;;;;51.90;48.47;;;;;;;;;;5032606;28;20083;-66
2024/01/13 06:17:17;;;;;;;55.38;51.78;;;;;;;;;;5032453;28;20471;-68
2024/01/13 06:19:43;;;;;;;47.35;44.70;;;;;;;;;;5032491;28;20542;-67
2024/01/13 06:22:09;;;;;;;47.47;44.65;;;;;;;;;;5028777;28;20037;-68
2024/01/13 06:24:34;;;;;;;43.40;40.90;;;;;;;;;;5032502;28;20022;-67
2024/01/13 06:27:00;;;;;;;46.03;43.17;;;;;;;;;;5031558;28;20039;-67
2024/01/13 06:29:25;;;;;;;43.88;41.30;;;;;;;;;;5027779;28;20413;-67
2024/01/13 06:31:51;;;;;;;44.22;41.47;;;;;;;;;;5029165;28;20378;-67
2024/01/13 06:34:16;;;;;;;42.85;40.55;;;;;;;;;;5028900;28;20453;-68
2024/01/13 06:36:41;;;;;;;45.33;42.58;;;;;;;;;;5028435;28;20107;-68
2024/01/13 06:39:07;;;;;;;43.22;40.60;;;;;;;;;;5027543;28;20046;-63
2024/01/13 06:41:32;;;;;;;42.05;39.65;;;;;;;;;;5031094;28;20037;-63
2024/01/13 06:43:58;;;;;;;41.55;39.10;;;;;;;;;;5031281;28;20666;-68
2024/01/13 06:46:23;;;;;;;46.10;43.50;;;;;;;;;;5028866;28;20124;-67
2024/01/13 06:48:48;;;;;;;47.22;44.58;;;;;;;;;;5028235;28;20061;-67
2024/01/13 06:51:14;;;;;;;47.90;45.22;;;;;;;;;;5027787;28;20052;-63
2024/01/13 06:53:39;;;;;;;47.60;44.88;;;;;;;;;;5028227;28;20063;-64
2024/01/13 06:56:05;;;;;;;48.42;45.63;;;;;;;;;;5027874;28;20090;-67
2024/01/13 06:58:30;;;;;;;50.53;47.13;;;;;;;;;;5037514;28;20120;-66
2024/01/13 07:00:56;;;;;;;47.28;44.28;;;;;;;;;;5029902;28;20029;-67
2024/01/13 07:03:21;;;;;;;47.47;44.25;;;;;;;;;;5036903;28;20128;-63
2024/01/13 07:05:46;;;;;;;42.47;40.17;;;;;;;;;;5033977;28;20021;-64
2024/01/13 07:08:12;;;;;;;45.70;43.10;;;;;;;;;;5033085;28;20622;-64
2024/01/13 07:10:37;;;;;;;47.58;44.33;;;;;;;;;;5035157;28;20044;-63
2024/01/13 07:13:03;;;;;;;45.53;42.78;;;;;;;;;;5032078;28;20117;-67
2024/01/13 07:15:28;;;;;;;41.65;38.92;;;;;;;;;;5033597;28;20044;-67
2024/01/13 07:17:53;;;;;;;42.03;39.58;;;;;;;;;;5034913;28;20025;-64
2024/01/13 07:20:18;;;;;;;40.67;38.17;;;;;;;;;;5034117;28;20652;-63
2024/01/13 07:22:44;;;;;;;41.47;39.00;;;;;;;;;;5031430;28;20048;-63
2024/01/13 07:25:09;;;;;;;40.53;38.20;;;;;;;;;;5033933;28;20076;-64
2024/01/13 07:27:35;;;;;;;40.70;38.00;;;;;;;;;;5035354;28;20033;-63
2024/01/13 07:30:00;;;;;;;42.78;40.17;;;;;;;;;;5034031;28;20048;-63
2024/01/13 07:32:26;;;;;;;40.67;38.28;;;;;;;;;;5034198;28;20159;-63
2024/01/13 07:34:51;;;;;;;43.05;40.55;;;;;;;;;;5032910;28;20362;-64
2024/01/13 07:37:16;;;;;;;44.78;42.08;;;;;;;;;;5030016;28;20874;-64
2024/01/13 07:39:43;;;;;;;41.60;39.38;;;;;;;;;;5032934;28;20048;-64
2024/01/13 07:42:09;;;;;;;41.13;38.80;;;;;;;;;;5031323;28;20644;-68
2024/01/13 07:44:34;;;;;;;43.42;40.53;;;;;;;;;;5031347;28;20040;-64
2024/01/13 07:47:03;;;;;;;44.67;41.78;;;;;;;;;;5030669;28;20116;-64
2024/01/13 07:49:28;;;;;;;38.65;36.40;;;;;;;;;;5031210;28;20025;-65
2024/01/13 07:51:54;;;;;;;39.97;37.75;;;;;;;;;;5033266;28;20052;-64
2024/01/13 07:54:20;;;;;;;45.33;42.30;;;;;;;;;;5031227;28;20119;-64
2024/01/13 07:56:46;;;;;;;40.83;38.53;;;;;;;;;;5035803;28;20444;-64
2024/01/13 07:59:11;;;;;;;40.05;37.38;;;;;;;;;;5033564;28;20120;-64
2024/01/13 08:01:38;;;;;;;40.83;38.50;;;;;;;;;;5035114;28;20028;-64
2024/01/13 08:04:03;;;;;;;37.45;35.03;;;;;;;;;;5031925;28;20548;-65
2024/01/13 08:06:29;;;;;;;41.70;39.35;;;;;;;;;;5032285;28;20456;-64
2024/01/13 08:08:56;;;;;;;40.70;38.30;;;;;;;;;;5033537;28;20029;-64
2024/01/13 08:11:21;;;;;;;39.45;37.17;;;;;;;;;;5034299;28;20049;-64
2024/01/13 08:13:46;;;;;;;39.63;37.38;;;;;;;;;;5035440;28;20097;-64
2024/01/13 08:16:12;;;;;;;39.60;37.35;;;;;;;;;;5032305;28;20025;-64
2024/01/13 08:18:37;;;;;;;40.97;38.70;;;;;;;;;;5033364;28;20123;-64
2024/01/13 08:21:03;;;;;;;40.97;38.50;;;;;;;;;;5031117;28;20040;-64
2024/01/13 08:23:28;;;;;;;42.05;39.53;;;;;;;;;;5035829;28;20025;-68
2024/01/13 08:25:53;;;;;;;44.05;41.25;;;;;;;;;;5028533;28;20120;-68
2024/01/13 08:28:18;;;;;;;41.78;39.30;;;;;;;;;;5031839;28;20029;-63
2024/01/13 08:30:45;;;;;;;41.50;38.70;;;;;;;;;;5030387;28;20112;-68
2024/01/13 08:33:11;;;;;;;42.45;39.63;;;;;;;;;;5029130;28;20090;-68
2024/01/13 08:35:36;;;;;;;42.00;39.55;;;;;;;;;;5029781;28;20084;-68
2024/01/13 08:38:01;;;;;;;40.03;37.55;;;;;;;;;;5028995;28;20316;-68
2024/01/13 08:40:27;;;;;;;41.55;39.17;;;;;;;;;;5032367;28;20045;-69
2024/01/13 08:42:52;;;;;;;41.97;39.33;;;;;;;;;;5032637;28;20051;-69
2024/01/13 08:45:23;;;;;;;41.53;39.20;;;;;;;;;;5032317;28;20061;-67
2024/01/13 08:47:48;;;;;;;38.95;36.65;;;;;;;;;;5034470;28;20029;-68
2024/01/13 08:50:14;;;;;;;41.63;38.92;;;;;;;;;;5032994;28;20529;-68
2024/01/13 08:52:39;;;;;;;39.60;37.33;;;;;;;;;;5030775;28;20052;-68
2024/01/13 08:55:05;;;;;;;40.40;38.13;;;;;;;;;;5030969;28;20054;-64
2024/01/13 08:57:30;;;;;;;41.78;39.08;;;;;;;;;;5030445;28;20040;-64
2024/01/13 08:59:56;;;;;;;38.30;36.00;;;;;;;;;;5030263;28;20379;-64
2024/01/13 09:02:21;;;;;;;39.28;36.90;;;;;;;;;;5033575;28;20061;-64
2024/01/13 09:04:46;;;;;;;39.58;36.88;;;;;;;;;;5032680;28;20037;-64
2024/01/13 09:07:12;;;;;;;34.22;32.03;;;;;;;;;;5029819;28;20025;-65
2024/01/13 09:09:37;;;;;;;41.83;39.25;;;;;;;;;;5029043;28;20025;-64
2024/01/13 09:12:03;;;;;;;35.83;33.78;;;;;;;;;;5027385;28;20045;-64
2024/01/13 09:14:28;;;;;;;37.90;35.35;;;;;;;;;;5031212;28;20052;-63
2024/01/13 09:16:53;;;;;;;35.95;33.85;;;;;;;;;;5027689;28;20064;-64
2024/01/13 09:19:19;;;;;;;34.50;32.47;;;;;;;;;;5030376;28;20344;-64
2024/01/13 09:21:44;;;;;;;34.08;32.13;;;;;;;;;;5032653;28;20033;-64
2024/01/13 09:24:10;;;;;;;37.47;35.08;;;;;;;;;;5032987;28;20280;-64
2024/01/13 09:26:42;;;;;;;36.50;34.08;;;;;;;;;;5033245;28;20391;-64
2024/01/13 09:29:08;;;;;;;38.15;35.65;;;;;;;;;;5032698;28;20048;-64
2024/01/13 09:31:33;;;;;;;37.55;35.20;;;;;;;;;;5028447;28;20147;-64
2024/01/13 09:33:59;;;;;;;33.83;31.83;;;;;;;;;;5031039;28;20131;-64
2024/01/13 09:36:24;;;;;;;37.63;35.20;;;;;;;;;;5026667;28;20045;-64
2024/01/13 09:38:49;;;;;;;36.55;34.25;;;;;;;;;;5032237;28;20168;-64
2024/01/13 09:41:17;;;;;;;35.33;33.05;;;;;;;;;;5028048;28;20068;-65
2024/01/13 09:43:57;;;;;;;35.42;33.33;;;;;;;;;;5025553;28;20029;-65
2024/01/13 09:46:23;;;;;;;34.33;32.22;;;;;;;;;;5029192;28;20439;-64
2024/01/13 09:48:49;;;;;;;34.65;32.67;;;;;;;;;;5030935;28;20029;-63
2024/01/13 09:51:15;;;;;;;35.75;33.65;;;;;;;;;;5029742;28;20060;-64
2024/01/13 09:53:47;;;;;;;35.88;33.78;;;;;;;;;;5031863;28;20063;-63
2024/01/13 09:56:22;;;;;;;39.33;36.90;;;;;;;;;;5030742;28;20033;-63
2024/01/13 09:58:48;;;;;;;41.75;39.25;;;;;;;;;;5029758;28;20364;-64
2024/01/13 10:01:13;;;;;;;45.50;42.65;;;;;;;;;;5029048;28;20040;-63
2024/01/13 10:03:38;;;;;;;43.78;41.33;;;;;;;;;;5028262;28;20061;-65
2024/01/13 10:06:04;;;;;;;43.55;40.92;;;;;;;;;;5029654;28;20037;-63
2024/01/13 10:08:32;;;;;;;42.30;39.97;;;;;;;;;;5030160;28;20036;-62
2024/01/13 10:11:03;;;;;;;45.40;42.53;;;;;;;;;;5033238;28;20407;-62
2024/01/13 10:13:29;;;;;;;47.75;45.00;;;;;;;;;;5031944;28;20037;-62
2024/01/13 10:15:55;;;;;;;50.72;48.00;;;;;;;;;;5031746;28;20108;-62
2024/01/13 10:18:22;;;;;;;47.60;44.95;;;;;;;;;;5030398;28;20124;-62
2024/01/13 10:20:48;;;;;;;49.03;45.95;;;;;;;;;;5029260;28;20037;-62
2024/01/13 10:23:14;;;;;;;48.92;46.15;;;;;;;;;;5030688;28;20447;-63
2024/01/13 10:25:39;;;;;;;54.78;51.67;;;;;;;;;;5035731;28;20033;-62
2024/01/13 10:28:05;;;;;;;53.33;50.38;;;;;;;;;;5033249;28;20033;-62
2024/01/13 10:30:31;;;;;;;57.30;53.78;;;;;;;;;;5029337;28;20056;-63
2024/01/13 10:33:00;;;;;;;52.30;49.30;;;;;;;;;;5032898;28;20040;-62
2024/01/13 10:35:28;;;;;;;56.58;53.30;;;;;;;;;;5032493;28;20037;-63
2024/01/13 10:37:57;;;;;;;55.45;52.33;;;;;;;;;;5031901;28;20026;-63
2024/01/13 10:40:23;;;;;;;56.97;53.60;;;;;;;;;;5035113;28;20041;-62
2024/01/13 10:42:53;;;;;;;56.00;52.70;;;;;;;;;;5032790;28;20033;-62
2024/01/13 10:45:22;;;;;;;53.58;50.67;;;;;;;;;;5032856;28;20325;-63
2024/01/13 10:47:52;;;;;;;55.63;52.53;;;;;;;;;;5033924;28;20156;-63
2024/01/13 10:50:17;;;;;;;62.22;58.95;;;;;;;;;;5034086;28;20032;-62
2024/01/13 10:52:48;;;;;;;63.20;59.75;;;;;;;;;;5034416;28;20045;-63
2024/01/13 10:55:14;;;;;;;56.95;53.95;;;;;;;;;;5032703;28;20048;-63
2024/01/13 10:57:41;;;;;;;59.38;56.28;;;;;;;;;;5033007;28;20033;-63
2024/01/13 11:00:10;;;;;;;65.78;62.30;;;;;;;;;;5029174;28;20176;-63
2024/01/13 11:02:37;;;;;;;64.50;60.95;;;;;;;;;;5033208;28;20143;-63
2024/01/13 11:05:04;;;;;;;64.22;60.90;;;;;;;;;;5030866;28;20037;-63
2024/01/13 11:07:30;;;;;;;68.00;63.60;;;;;;;;;;5033532;28;20451;-63
2024/01/13 11:09:58;;;;;;;68.55;64.63;;;;;;;;;;5035015;28;20033;-64
2024/01/13 11:12:55;;;;;;;67.25;63.75;;;;;;;;;;5034160;28;20032;-63
2024/01/13 11:15:40;;;;;;;70.85;67.03;;;;;;;;;;5033568;28;20052;-63
2024/01/13 11:18:06;;;;;;;73.40;69.60;;;;;;;;;;5025795;28;20111;-64
2024/01/13 11:20:58;;;;;;;81.10;76.82;;;;;;;;;;5031016;28;20056;-64
2024/01/13 11:23:23;;;;;;;;;;;;;;;;;;5033914;28;20032;-64
2024/01/13 11:25:49;;;;;;;70.88;67.20;;;;;;;;;;5034137;28;20243;-64
2024/01/13 11:28:14;;;;;;;79.18;75.13;;;;;;;;;;5035599;28;20037;-64
2024/01/13 11:30:40;;;;;;;84.22;79.88;;;;;;;;;;5034177;28;20037;-64
2024/01/13 11:33:10;;;;;;;85.07;80.80;;;;;;;;;;5016457;28;20133;-64
2024/01/13 11:35:37;;;;;;;84.85;80.57;;;;;;;;;;5030632;28;20061;-69
2024/01/13 11:38:05;;;;;;;89.07;84.47;;;;;;;;;;5034399;28;20033;-68
2024/01/13 11:40:32;;;;;;;88.35;83.88;;;;;;;;;;5035360;28;20037;-69
2024/01/13 11:43:01;;;;;;;95.85;91.07;;;;;;;;;;5032482;28;20372;-70
2024/01/13 11:45:40;;;;;;;95.05;90.32;;;;;;;;;;5032826;28;20060;-69
2024/01/13 11:48:30;;;;;;;92.82;88.22;;;;;;;;;;5035680;28;20037;-70
2024/01/13 11:50:56;;;;;;;87.70;83.20;;;;;;;;;;5023893;28;20037;-70
2024/01/13 11:53:42;;;;;;;88.45;84.05;;;;;;;;;;5033038;28;20084;-69
2024/01/13 11:56:09;;;;;;;83.97;79.70;;;;;;;;;;5032277;28;20491;-70
2024/01/13 11:58:36;;;;;;;84.20;79.97;;;;;;;;;;5033024;28;20080;-71
2024/01/13 12:01:03;;;;;;;84.00;79.80;;;;;;;;;;5030246;28;20570;-69
2024/01/13 12:03:29;;;;;;;82.95;78.85;;;;;;;;;;5031552;28;20065;-69
2024/01/13 12:05:55;;;;;;;85.90;81.60;;;;;;;;;;5030398;28;20044;-69
2024/01/13 12:08:23;;;;;;;83.35;79.07;;;;;;;;;;5031398;28;20032;-69
2024/01/13 12:10:51;;;;;;;76.43;72.40;;;;;;;;;;5034491;28;20032;-69
2024/01/13 12:13:18;;;;;;;73.28;69.63;;;;;;;;;;5032281;28;20033;-69
2024/01/13 12:15:47;;;;;;;70.70;67.13;;;;;;;;;;5032686;28;20029;-69
2024/01/13 12:18:25;;;;;;;69.75;66.18;;;;;;;;;;5033359;28;20137;-69
2024/01/13 12:20:57;;;;;;;68.18;64.70;;;;;;;;;;5034922;28;20036;-69
2024/01/13 12:23:23;;;;;;;71.57;67.90;;;;;;;;;;5031710;28;20061;-71
2024/01/13 12:25:50;;;;;;;65.88;62.50;;;;;;;;;;5031449;28;20045;-70
2024/01/13 12:28:15;;;;;;;65.57;62.13;;;;;;;;;;5033879;28;20037;-68
2024/01/13 12:30:40;;;;;;;63.53;60.30;;;;;;;;;;5033132;28;20029;-68
2024/01/13 12:33:06;;;;;;;61.65;58.55;;;;;;;;;;5033315;28;20032;-68
2024/01/13 12:35:32;;;;;;;64.35;61.05;;;;;;;;;;5035220;28;20033;-68
2024/01/13 12:37:58;;;;;;;62.60;59.40;;;;;;;;;;5033739;28;20595;-68
2024/01/13 12:40:24;;;;;;;60.58;57.47;;;;;;;;;;5030851;28;20041;-68
2024/01/13 12:42:49;;;;;;;54.88;51.88;;;;;;;;;;5030614;28;20029;-68
2024/01/13 12:45:16;;;;;;;54.75;51.95;;;;;;;;;;5031067;28;20040;-68
2024/01/13 12:47:42;;;;;;;50.33;47.70;;;;;;;;;;5031555;28;20112;-68
2024/01/13 12:50:11;;;;;;;54.03;51.22;;;;;;;;;;5031764;28;20044;-68
2024/01/13 12:52:38;;;;;;;50.40;47.80;;;;;;;;;;5030326;28;20577;-67
2024/01/13 12:55:04;;;;;;;51.78;49.17;;;;;;;;;;5030563;28;20052;-70
2024/01/13 12:57:29;;;;;;;54.13;51.42;;;;;;;;;;5029806;28;20033;-72
2024/01/13 12:59:56;;;;;;;49.30;46.67;;;;;;;;;;5034243;28;20594;-70
2024/01/13 13:02:21;;;;;;;50.10;47.50;;;;;;;;;;5029594;28;20029;-69
2024/01/13 13:04:47;;;;;;;47.28;44.85;;;;;;;;;;5028807;28;20021;-68
2024/01/13 13:07:12;;;;;;;44.45;42.05;;;;;;;;;;5032802;28;20029;-70
2024/01/13 13:09:37;;;;;;;43.85;41.33;;;;;;;;;;5032962;28;20036;-60
2024/01/13 13:12:03;;;;;;;41.28;39.10;;;;;;;;;;5034306;28;20413;-60
2024/01/13 13:14:28;;;;;;;42.92;40.72;;;;;;;;;;5031495;28;20029;-60
2024/01/13 13:16:54;;;;;;;41.10;39.00;;;;;;;;;;5032535;28;20407;-59
2024/01/13 13:19:20;;;;;;;41.45;39.15;;;;;;;;;;5030611;28;20378;-59
2024/01/13 13:21:46;;;;;;;41.13;38.92;;;;;;;;;;5030625;28;20471;-60
2024/01/13 13:24:12;;;;;;;41.30;39.00;;;;;;;;;;5030131;28;20065;-60
2024/01/13 13:26:37;;;;;;;41.25;39.15;;;;;;;;;;5031339;28;20035;-60
2024/01/13 13:29:02;;;;;;;42.33;39.63;;;;;;;;;;5033792;28;20025;-60
2024/01/13 13:31:28;;;;;;;38.00;36.00;;;;;;;;;;5031320;28;20467;-59
2024/01/13 13:33:53;;;;;;;39.63;37.53;;;;;;;;;;5032688;28;20025;-60
2024/01/13 13:36:18;;;;;;;37.85;35.78;;;;;;;;;;5032359;28;20041;-60
2024/01/13 13:38:44;;;;;;;36.65;34.67;;;;;;;;;;5030769;28;20087;-60
2024/01/13 13:41:09;;;;;;;37.72;35.75;;;;;;;;;;5033163;28;20128;-60
2024/01/13 13:43:34;;;;;;;37.30;35.40;;;;;;;;;;5031501;28;20038;-59
2024/01/13 13:46:00;;;;;;;35.88;34.03;;;;;;;;;;5030386;28;20044;-60
2024/01/13 13:48:28;;;;;;;35.92;33.85;;;;;;;;;;5030440;28;20040;-60
2024/01/13 13:50:53;;;;;;;35.95;34.13;;;;;;;;;;5032065;28;20083;-60
2024/01/13 13:53:19;;;;;;;38.20;36.20;;;;;;;;;;5025339;28;20348;-60
2024/01/13 13:55:44;;;;;;;34.92;33.03;;;;;;;;;;5032441;28;20458;-60
2024/01/13 13:58:10;;;;;;;37.45;35.20;;;;;;;;;;5033513;28;20044;-59
2024/01/13 14:00:35;;;;;;;37.72;35.75;;;;;;;;;;5030270;28;20068;-60
2024/01/13 14:03:01;;;;;;;35.97;34.08;;;;;;;;;;5029951;28;20075;-60
2024/01/13 14:05:26;;;;;;;35.28;33.42;;;;;;;;;;5033525;28;20370;-60
2024/01/13 14:07:51;;;;;;;34.95;33.13;;;;;;;;;;5031498;28;20021;-60
2024/01/13 14:10:17;;;;;;;36.20;34.30;;;;;;;;;;5034806;28;20030;-60
2024/01/13 14:12:42;;;;;;;35.47;33.47;;;;;;;;;;5036850;28;20078;-60